Check out our new BloomSky Weather System.

Active alerts

Houston, TX
  Details for Houston, TX River Flood Warning  +1 additional alert
Fort Bend, TX
  Details for Fort Bend, TX River Flood Warning  +1 additional alert


Thunder radar  blitzortung!


Rain radar more information rain snow radar


Visit our other weather sites:

Template documentation
and downloads

And another site



Weather Underground History page Text

Daily Summary for February 12, 2018 Units:  Both    English   Metric
« Previous Day
Next Day »
Daily Weekly Monthly Yearly Custom
  High: Low: Average:
Temperature: TemperatureF °F /  -17.8 °C 34.7 °F /  1.5 °C 40.4 °F /  4.7 °C
Dew Point: DewpointF °F /  -17.8 °C 31.1 °F /  -0.5 °C 37.2 °F /  2.9 °C
Humidity: Humidity % 83 % 88 %
Wind Speed: WindSpeedMPH mph /  0 km/h - 2.3 mph /  3.7 km/h
Wind Gust: WindSpeedGustMPH mph /  0 km/h - -
Wind:- - SW
Pressure: PressureIn in /  0 hPa 30.27 in /  1024.9 hPa -
Precipitation: 0.00 in /  0 mm    
Historical Graphs
 
 
Tabular Data for February 12, 2018
Time Temperature Dew Point Pressure Wind Wind Speed Wind Gust Humidity Rainfall Rate (Hourly)
TemperatureF °F /  -17.8 °C DewpointF °F /  -17.8 °C PressureIn in /  0 hPa Calm     Humidity % HourlyPrecipIn in /  0 mm
00:00 37.0 °F /  2.8 °C 32.7 °F /  0.4 °C 30.27 in /  1024.9 hPa WNW 5.0 mph /  8 km/h 8.0 mph /  12.9 km/h 84 % 0.00 in /  0 mm
00:05 37.0 °F /  2.8 °C 32.7 °F /  0.4 °C 30.28 in /  1025.3 hPa NNW 3.0 mph /  4.8 km/h 8.0 mph /  12.9 km/h 84 % 0.00 in /  0 mm
00:10 37.0 °F /  2.8 °C 32.7 °F /  0.4 °C 30.28 in /  1025.3 hPa WNW 1.0 mph /  1.6 km/h 8.0 mph /  12.9 km/h 84 % 0.00 in /  0 mm
00:15 37.0 °F /  2.8 °C 32.7 °F /  0.4 °C 30.28 in /  1025.3 hPa NNE 6.0 mph /  9.7 km/h 7.0 mph /  11.3 km/h 84 % 0.00 in /  0 mm
00:20 37.0 °F /  2.8 °C 32.4 °F /  0.2 °C 30.28 in /  1025.3 hPa NW 4.0 mph /  6.4 km/h 9.0 mph /  14.5 km/h 83 % 0.00 in /  0 mm
00:25 37.0 °F /  2.8 °C 32.4 °F /  0.2 °C 30.28 in /  1025.3 hPa NW 5.0 mph /  8 km/h 9.0 mph /  14.5 km/h 83 % 0.00 in /  0 mm
00:30 36.9 °F /  2.7 °C 32.2 °F /  0.1 °C 30.28 in /  1025.3 hPa NNE 3.0 mph /  4.8 km/h 10.0 mph /  16.1 km/h 83 % 0.00 in /  0 mm
00:35 36.9 °F /  2.7 °C 32.2 °F /  0.1 °C 30.28 in /  1025.3 hPa NW 3.0 mph /  4.8 km/h 10.0 mph /  16.1 km/h 83 % 0.00 in /  0 mm
00:40 36.9 °F /  2.7 °C 32.2 °F /  0.1 °C 30.28 in /  1025.3 hPa NW 4.0 mph /  6.4 km/h 10.0 mph /  16.1 km/h 83 % 0.00 in /  0 mm
00:45 36.9 °F /  2.7 °C 32.2 °F /  0.1 °C 30.28 in /  1025.3 hPa NW 4.0 mph /  6.4 km/h 10.0 mph /  16.1 km/h 83 % 0.00 in /  0 mm
00:50 36.7 °F /  2.6 °C 32.0 °F /  0 °C 30.28 in /  1025.3 hPa NNW 2.0 mph /  3.2 km/h 8.0 mph /  12.9 km/h 83 % 0.00 in /  0 mm
00:55 36.7 °F /  2.6 °C 32.0 °F /  0 °C 30.28 in /  1025.3 hPa NW 3.0 mph /  4.8 km/h 9.0 mph /  14.5 km/h 83 % 0.00 in /  0 mm
01:00 36.3 °F /  2.4 °C 31.6 °F /  -0.2 °C 30.29 in /  1025.6 hPa WNW 3.0 mph /  4.8 km/h 11.0 mph /  17.7 km/h 83 % 0.00 in /  0 mm
01:05 36.3 °F /  2.4 °C 31.6 °F /  -0.2 °C 30.29 in /  1025.6 hPa NW 4.0 mph /  6.4 km/h 11.0 mph /  17.7 km/h 83 % 0.00 in /  0 mm
01:10 36.1 °F /  2.3 °C 31.5 °F /  -0.3 °C 30.29 in /  1025.6 hPa NW 1.0 mph /  1.6 km/h 11.0 mph /  17.7 km/h 83 % 0.00 in /  0 mm
01:15 36.0 °F /  2.2 °C 31.6 °F /  -0.2 °C 30.29 in /  1025.6 hPa NNW 2.0 mph /  3.2 km/h 9.0 mph /  14.5 km/h 84 % 0.00 in /  0 mm
01:20 36.0 °F /  2.2 °C 31.6 °F /  -0.2 °C 30.29 in /  1025.6 hPa NNW 2.0 mph /  3.2 km/h 9.0 mph /  14.5 km/h 84 % 0.00 in /  0 mm
01:25 36.0 °F /  2.2 °C 31.6 °F /  -0.2 °C 30.29 in /  1025.6 hPa NNW 3.0 mph /  4.8 km/h 8.0 mph /  12.9 km/h 84 % 0.00 in /  0 mm
01:30 35.8 °F /  2.1 °C 31.5 °F /  -0.3 °C 30.29 in /  1025.6 hPa NNW 1.0 mph /  1.6 km/h 7.0 mph /  11.3 km/h 84 % 0.00 in /  0 mm
01:35 35.8 °F /  2.1 °C 31.6 °F /  -0.2 °C 30.29 in /  1025.6 hPa NNW 1.0 mph /  1.6 km/h 7.0 mph /  11.3 km/h 85 % 0.00 in /  0 mm
01:40 35.6 °F /  2 °C 31.5 °F /  -0.3 °C 30.29 in /  1025.6 hPa Calm   7.0 mph /  11.3 km/h 85 % 0.00 in /  0 mm
01:45 35.4 °F /  1.9 °C 31.3 °F /  -0.4 °C 30.29 in /  1025.6 hPa North 8.0 mph /  12.9 km/h 8.0 mph /  12.9 km/h 85 % 0.00 in /  0 mm
01:50 35.4 °F /  1.9 °C 31.3 °F /  -0.4 °C 30.28 in /  1025.3 hPa Calm   8.0 mph /  12.9 km/h 85 % 0.00 in /  0 mm
01:55 35.4 °F /  1.9 °C 31.3 °F /  -0.4 °C 30.29 in /  1025.6 hPa NW 2.0 mph /  3.2 km/h 9.0 mph /  14.5 km/h 85 % 0.00 in /  0 mm
02:00 35.2 °F /  1.8 °C 31.1 °F /  -0.5 °C 30.28 in /  1025.3 hPa West 1.0 mph /  1.6 km/h 9.0 mph /  14.5 km/h 85 % 0.00 in /  0 mm
02:05 35.2 °F /  1.8 °C 31.1 °F /  -0.5 °C 30.28 in /  1025.3 hPa NW 1.0 mph /  1.6 km/h 9.0 mph /  14.5 km/h 85 % 0.00 in /  0 mm
02:10 35.2 °F /  1.8 °C 31.5 °F /  -0.3 °C 30.28 in /  1025.3 hPa North 2.0 mph /  3.2 km/h 7.0 mph /  11.3 km/h 86 % 0.00 in /  0 mm
02:15 35.1 °F /  1.7 °C 31.3 °F /  -0.4 °C 30.28 in /  1025.3 hPa West 5.0 mph /  8 km/h 8.0 mph /  12.9 km/h 86 % 0.00 in /  0 mm
02:20 35.1 °F /  1.7 °C 31.3 °F /  -0.4 °C 30.28 in /  1025.3 hPa WNW 1.0 mph /  1.6 km/h 9.0 mph /  14.5 km/h 86 % 0.00 in /  0 mm
02:25 35.1 °F /  1.7 °C 31.3 °F /  -0.4 °C 30.28 in /  1025.3 hPa NNW 3.0 mph /  4.8 km/h 9.0 mph /  14.5 km/h 86 % 0.00 in /  0 mm
02:30 34.9 °F /  1.6 °C 31.1 °F /  -0.5 °C 30.28 in /  1025.3 hPa NNW 1.0 mph /  1.6 km/h 9.0 mph /  14.5 km/h 86 % 0.00 in /  0 mm
02:35 34.9 °F /  1.6 °C 31.5 °F /  -0.3 °C 30.28 in /  1025.3 hPa NW 3.0 mph /  4.8 km/h 8.0 mph /  12.9 km/h 87 % 0.00 in /  0 mm
02:40 34.9 °F /  1.6 °C 31.5 °F /  -0.3 °C 30.28 in /  1025.3 hPa NW 3.0 mph /  4.8 km/h 8.0 mph /  12.9 km/h 87 % 0.00 in /  0 mm
02:45 34.9 °F /  1.6 °C 31.5 °F /  -0.3 °C 30.28 in /  1025.3 hPa NW 4.0 mph /  6.4 km/h 8.0 mph /  12.9 km/h 87 % 0.00 in /  0 mm
02:50 34.7 °F /  1.5 °C 31.3 °F /  -0.4 °C 30.27 in /  1024.9 hPa NNW 3.0 mph /  4.8 km/h 8.0 mph /  12.9 km/h 87 % 0.00 in /  0 mm
02:55 34.7 °F /  1.5 °C 31.5 °F /  -0.3 °C 30.28 in /  1025.3 hPa NW 2.0 mph /  3.2 km/h 9.0 mph /  14.5 km/h 88 % 0.00 in /  0 mm
03:00 34.9 °F /  1.6 °C 31.6 °F /  -0.2 °C 30.28 in /  1025.3 hPa North 9.0 mph /  14.5 km/h 11.0 mph /  17.7 km/h 88 % 0.00 in /  0 mm
03:05 34.9 °F /  1.6 °C 31.6 °F /  -0.2 °C 30.28 in /  1025.3 hPa NW 7.0 mph /  11.3 km/h 11.0 mph /  17.7 km/h 88 % 0.00 in /  0 mm
03:10 34.9 °F /  1.6 °C 31.6 °F /  -0.2 °C 30.28 in /  1025.3 hPa Calm   11.0 mph /  17.7 km/h 88 % 0.00 in /  0 mm
03:15 34.9 °F /  1.6 °C 31.6 °F /  -0.2 °C 30.28 in /  1025.3 hPa NNW 2.0 mph /  3.2 km/h 12.0 mph /  19.3 km/h 88 % 0.00 in /  0 mm
03:20 35.1 °F /  1.7 °C 31.8 °F /  -0.1 °C 30.29 in /  1025.6 hPa North 1.0 mph /  1.6 km/h 12.0 mph /  19.3 km/h 88 % 0.00 in /  0 mm
03:25 35.1 °F /  1.7 °C 32.2 °F /  0.1 °C 30.28 in /  1025.3 hPa SSE 2.0 mph /  3.2 km/h 12.0 mph /  19.3 km/h 89 % 0.00 in /  0 mm
03:30 35.1 °F /  1.7 °C 32.2 °F /  0.1 °C 30.29 in /  1025.6 hPa NE 8.0 mph /  12.9 km/h 9.0 mph /  14.5 km/h 89 % 0.00 in /  0 mm
03:35 35.1 °F /  1.7 °C 32.2 °F /  0.1 °C 30.29 in /  1025.6 hPa NW 2.0 mph /  3.2 km/h 10.0 mph /  16.1 km/h 89 % 0.00 in /  0 mm
03:40 35.2 °F /  1.8 °C 32.4 °F /  0.2 °C 30.29 in /  1025.6 hPa NW 3.0 mph /  4.8 km/h 10.0 mph /  16.1 km/h 89 % 0.00 in /  0 mm
03:45 35.2 °F /  1.8 °C 32.4 °F /  0.2 °C 30.29 in /  1025.6 hPa NW 5.0 mph /  8 km/h 11.0 mph /  17.7 km/h 89 % 0.00 in /  0 mm
03:50 35.2 °F /  1.8 °C 32.4 °F /  0.2 °C 30.29 in /  1025.6 hPa NW 5.0 mph /  8 km/h 11.0 mph /  17.7 km/h 89 % 0.00 in /  0 mm
03:55 35.2 °F /  1.8 °C 32.4 °F /  0.2 °C 30.29 in /  1025.6 hPa NNW 1.0 mph /  1.6 km/h 11.0 mph /  17.7 km/h 89 % 0.00 in /  0 mm
04:00 35.2 °F /  1.8 °C 32.4 °F /  0.2 °C 30.29 in /  1025.6 hPa Calm   10.0 mph /  16.1 km/h 89 % 0.00 in /  0 mm
04:05 35.4 °F /  1.9 °C 32.5 °F /  0.3 °C 30.30 in /  1026 hPa NNW 1.0 mph /  1.6 km/h 13.0 mph /  20.9 km/h 89 % 0.00 in /  0 mm
04:10 35.4 °F /  1.9 °C 32.5 °F /  0.3 °C 30.30 in /  1026 hPa NNE 5.0 mph /  8 km/h 13.0 mph /  20.9 km/h 89 % 0.00 in /  0 mm
04:15 35.4 °F /  1.9 °C 32.5 °F /  0.3 °C 30.30 in /  1026 hPa NNE 2.0 mph /  3.2 km/h 13.0 mph /  20.9 km/h 89 % 0.00 in /  0 mm
04:20 35.4 °F /  1.9 °C 32.5 °F /  0.3 °C 30.30 in /  1026 hPa NNE 4.0 mph /  6.4 km/h 10.0 mph /  16.1 km/h 89 % 0.00 in /  0 mm
04:25 35.4 °F /  1.9 °C 32.5 °F /  0.3 °C 30.30 in /  1026 hPa NW 2.0 mph /  3.2 km/h 10.0 mph /  16.1 km/h 89 % 0.00 in /  0 mm
04:30 35.4 °F /  1.9 °C 32.5 °F /  0.3 °C 30.30 in /  1026 hPa NNW 1.0 mph /  1.6 km/h 10.0 mph /  16.1 km/h 89 % 0.00 in /  0 mm
04:35 35.4 °F /  1.9 °C 32.5 °F /  0.3 °C 30.30 in /  1026 hPa NW 3.0 mph /  4.8 km/h 7.0 mph /  11.3 km/h 89 % 0.00 in /  0 mm
04:40 35.4 °F /  1.9 °C 32.5 °F /  0.3 °C 30.30 in /  1026 hPa WSW 1.0 mph /  1.6 km/h 9.0 mph /  14.5 km/h 89 % 0.00 in /  0 mm
04:45 35.4 °F /  1.9 °C 32.5 °F /  0.3 °C 30.30 in /  1026 hPa NNE 1.0 mph /  1.6 km/h 10.0 mph /  16.1 km/h 89 % 0.00 in /  0 mm
04:51 35.4 °F /  1.9 °C 32.5 °F /  0.3 °C 30.31 in /  1026.3 hPa WNW 3.0 mph /  4.8 km/h 10.0 mph /  16.1 km/h 89 % 0.00 in /  0 mm
04:56 35.4 °F /  1.9 °C 32.5 °F /  0.3 °C 30.31 in /  1026.3 hPa ENE 3.0 mph /  4.8 km/h 10.0 mph /  16.1 km/h 89 % 0.00 in /  0 mm
05:01 35.4 °F /  1.9 °C 32.5 °F /  0.3 °C 30.30 in /  1026 hPa NE 2.0 mph /  3.2 km/h 8.0 mph /  12.9 km/h 89 % 0.00 in /  0 mm
05:06 35.4 °F /  1.9 °C 32.5 °F /  0.3 °C 30.30 in /  1026 hPa Calm   8.0 mph /  12.9 km/h 89 % 0.00 in /  0 mm
05:11 35.6 °F /  2 °C 32.9 °F /  0.5 °C 30.31 in /  1026.3 hPa North 4.0 mph /  6.4 km/h 8.0 mph /  12.9 km/h 90 % 0.00 in /  0 mm
05:16 35.4 °F /  1.9 °C 32.7 °F /  0.4 °C 30.31 in /  1026.3 hPa SE 2.0 mph /  3.2 km/h 9.0 mph /  14.5 km/h 90 % 0.00 in /  0 mm
05:21 35.6 °F /  2 °C 32.9 °F /  0.5 °C 30.31 in /  1026.3 hPa NNW 1.0 mph /  1.6 km/h 9.0 mph /  14.5 km/h 90 % 0.00 in /  0 mm
05:25 35.6 °F /  2 °C 32.9 °F /  0.5 °C 30.32 in /  1026.6 hPa NNW 6.0 mph /  9.7 km/h 9.0 mph /  14.5 km/h 90 % 0.00 in /  0 mm
05:30 35.6 °F /  2 °C 32.9 °F /  0.5 °C 30.32 in /  1026.6 hPa NW 1.0 mph /  1.6 km/h 7.0 mph /  11.3 km/h 90 % 0.00 in /  0 mm
05:35 35.8 °F /  2.1 °C 33.1 °F /  0.6 °C 30.32 in /  1026.6 hPa NW 2.0 mph /  3.2 km/h 7.0 mph /  11.3 km/h 90 % 0.00 in /  0 mm
05:40 35.8 °F /  2.1 °C 33.1 °F /  0.6 °C 30.32 in /  1026.6 hPa NNW 3.0 mph /  4.8 km/h 7.0 mph /  11.3 km/h 90 % 0.00 in /  0 mm
05:45 35.8 °F /  2.1 °C 33.1 °F /  0.6 °C 30.32 in /  1026.6 hPa NW 3.0 mph /  4.8 km/h 8.0 mph /  12.9 km/h 90 % 0.00 in /  0 mm
05:51 35.8 °F /  2.1 °C 33.1 °F /  0.6 °C 30.32 in /  1026.6 hPa North 1.0 mph /  1.6 km/h 8.0 mph /  12.9 km/h 90 % 0.00 in /  0 mm
05:56 35.8 °F /  2.1 °C 33.1 °F /  0.6 °C 30.32 in /  1026.6 hPa NNW 5.0 mph /  8 km/h 8.0 mph /  12.9 km/h 90 % 0.00 in /  0 mm
06:01 35.8 °F /  2.1 °C 33.1 °F /  0.6 °C 30.32 in /  1026.6 hPa Calm   11.0 mph /  17.7 km/h 90 % 0.00 in /  0 mm
06:06 35.8 °F /  2.1 °C 33.1 °F /  0.6 °C 30.33 in /  1027 hPa NNE 4.0 mph /  6.4 km/h 11.0 mph /  17.7 km/h 90 % 0.00 in /  0 mm
06:11 35.8 °F /  2.1 °C 33.1 °F /  0.6 °C 30.33 in /  1027 hPa North 5.0 mph /  8 km/h 11.0 mph /  17.7 km/h 90 % 0.00 in /  0 mm
06:16 35.8 °F /  2.1 °C 33.1 °F /  0.6 °C 30.33 in /  1027 hPa NW 1.0 mph /  1.6 km/h 13.0 mph /  20.9 km/h 90 % 0.00 in /  0 mm
06:21 36.0 °F /  2.2 °C 33.6 °F /  0.9 °C 30.33 in /  1027 hPa NNW 4.0 mph /  6.4 km/h 13.0 mph /  20.9 km/h 91 % 0.00 in /  0 mm
06:26 35.8 °F /  2.1 °C 33.4 °F /  0.8 °C 30.33 in /  1027 hPa NW 4.0 mph /  6.4 km/h 13.0 mph /  20.9 km/h 91 % 0.00 in /  0 mm
06:31 36.0 °F /  2.2 °C 33.6 °F /  0.9 °C 30.33 in /  1027 hPa East 4.0 mph /  6.4 km/h 9.0 mph /  14.5 km/h 91 % 0.00 in /  0 mm
06:36 36.0 °F /  2.2 °C 33.6 °F /  0.9 °C 30.33 in /  1027 hPa NNW 2.0 mph /  3.2 km/h 9.0 mph /  14.5 km/h 91 % 0.00 in /  0 mm
06:41 36.0 °F /  2.2 °C 33.6 °F /  0.9 °C 30.34 in /  1027.3 hPa North 2.0 mph /  3.2 km/h 9.0 mph /  14.5 km/h 91 % 0.00 in /  0 mm
06:46 36.0 °F /  2.2 °C 33.6 °F /  0.9 °C 30.34 in /  1027.3 hPa Calm   9.0 mph /  14.5 km/h 91 % 0.00 in /  0 mm
06:51 36.0 °F /  2.2 °C 33.6 °F /  0.9 °C 30.34 in /  1027.3 hPa NW 2.0 mph /  3.2 km/h 8.0 mph /  12.9 km/h 91 % 0.00 in /  0 mm
06:56 36.1 °F /  2.3 °C 33.8 °F /  1 °C 30.35 in /  1027.7 hPa NNW 1.0 mph /  1.6 km/h 8.0 mph /  12.9 km/h 91 % 0.00 in /  0 mm
07:01 36.1 °F /  2.3 °C 33.8 °F /  1 °C 30.35 in /  1027.7 hPa NNE 7.0 mph /  11.3 km/h 10.0 mph /  16.1 km/h 91 % 0.00 in /  0 mm
07:06 36.1 °F /  2.3 °C 33.8 °F /  1 °C 30.35 in /  1027.7 hPa North 2.0 mph /  3.2 km/h 10.0 mph /  16.1 km/h 91 % 0.00 in /  0 mm
07:11 36.3 °F /  2.4 °C 34.0 °F /  1.1 °C 30.35 in /  1027.7 hPa North 1.0 mph /  1.6 km/h 10.0 mph /  16.1 km/h 91 % 0.00 in /  0 mm
07:16 36.1 °F /  2.3 °C 33.8 °F /  1 °C 30.35 in /  1027.7 hPa WNW 1.0 mph /  1.6 km/h 11.0 mph /  17.7 km/h 91 % 0.00 in /  0 mm
07:21 36.1 °F /  2.3 °C 33.8 °F /  1 °C 30.35 in /  1027.7 hPa North 3.0 mph /  4.8 km/h 11.0 mph /  17.7 km/h 91 % 0.00 in /  0 mm
07:26 36.1 °F /  2.3 °C 33.8 °F /  1 °C 30.35 in /  1027.7 hPa NNE 4.0 mph /  6.4 km/h 11.0 mph /  17.7 km/h 91 % 0.00 in /  0 mm
07:31 36.1 °F /  2.3 °C 33.8 °F /  1 °C 30.35 in /  1027.7 hPa NW 1.0 mph /  1.6 km/h 12.0 mph /  19.3 km/h 91 % 0.00 in /  0 mm
07:36 36.1 °F /  2.3 °C 33.8 °F /  1 °C 30.35 in /  1027.7 hPa NNW 2.0 mph /  3.2 km/h 12.0 mph /  19.3 km/h 91 % 0.00 in /  0 mm
07:41 36.1 °F /  2.3 °C 33.8 °F /  1 °C 30.35 in /  1027.7 hPa NNW 2.0 mph /  3.2 km/h 12.0 mph /  19.3 km/h 91 % 0.00 in /  0 mm
07:46 36.1 °F /  2.3 °C 33.8 °F /  1 °C 30.35 in /  1027.7 hPa NNE 8.0 mph /  12.9 km/h 11.0 mph /  17.7 km/h 91 % 0.00 in /  0 mm
07:51 36.3 °F /  2.4 °C 34.2 °F /  1.2 °C 30.36 in /  1028 hPa NNW 7.0 mph /  11.3 km/h 11.0 mph /  17.7 km/h 92 % 0.00 in /  0 mm
07:56 36.3 °F /  2.4 °C 34.2 °F /  1.2 °C 30.36 in /  1028 hPa North 5.0 mph /  8 km/h 11.0 mph /  17.7 km/h 92 % 0.00 in /  0 mm
08:01 36.3 °F /  2.4 °C 34.2 °F /  1.2 °C 30.36 in /  1028 hPa NW 3.0 mph /  4.8 km/h 11.0 mph /  17.7 km/h 92 % 0.00 in /  0 mm
08:06 36.3 °F /  2.4 °C 34.2 °F /  1.2 °C 30.36 in /  1028 hPa NW 4.0 mph /  6.4 km/h 11.0 mph /  17.7 km/h 92 % 0.00 in /  0 mm
08:11 36.3 °F /  2.4 °C 34.2 °F /  1.2 °C 30.36 in /  1028 hPa NNW 1.0 mph /  1.6 km/h 11.0 mph /  17.7 km/h 92 % 0.00 in /  0 mm
08:16 36.7 °F /  2.6 °C 34.5 °F /  1.4 °C 30.36 in /  1028 hPa NW 1.0 mph /  1.6 km/h 9.0 mph /  14.5 km/h 92 % 0.00 in /  0 mm
08:21 36.7 °F /  2.6 °C 34.5 °F /  1.4 °C 30.36 in /  1028 hPa NW 1.0 mph /  1.6 km/h 9.0 mph /  14.5 km/h 92 % 0.00 in /  0 mm
08:26 36.9 °F /  2.7 °C 34.7 °F /  1.5 °C 30.37 in /  1028.3 hPa NW 2.0 mph /  3.2 km/h 9.0 mph /  14.5 km/h 92 % 0.00 in /  0 mm
08:31 36.9 °F /  2.7 °C 34.5 °F /  1.4 °C 30.37 in /  1028.3 hPa WNW 1.0 mph /  1.6 km/h 9.0 mph /  14.5 km/h 91 % 0.00 in /  0 mm
08:36 37.0 °F /  2.8 °C 34.7 °F /  1.5 °C 30.38 in /  1028.7 hPa Calm   7.0 mph /  11.3 km/h 91 % 0.00 in /  0 mm
08:41 37.2 °F /  2.9 °C 34.9 °F /  1.6 °C 30.38 in /  1028.7 hPa NNE 3.0 mph /  4.8 km/h 7.0 mph /  11.3 km/h 91 % 0.00 in /  0 mm
08:46 37.2 °F /  2.9 °C 34.9 °F /  1.6 °C 30.38 in /  1028.7 hPa North 1.0 mph /  1.6 km/h 7.0 mph /  11.3 km/h 91 % 0.00 in /  0 mm
08:51 37.6 °F /  3.1 °C 35.2 °F /  1.8 °C 30.39 in /  1029 hPa NNW 3.0 mph /  4.8 km/h 7.0 mph /  11.3 km/h 91 % 0.00 in /  0 mm
08:56 37.6 °F /  3.1 °C 35.2 °F /  1.8 °C 30.39 in /  1029 hPa NNE 5.0 mph /  8 km/h 7.0 mph /  11.3 km/h 91 % 0.00 in /  0 mm
09:01 37.8 °F /  3.2 °C 35.4 °F /  1.9 °C 30.40 in /  1029.3 hPa Calm   8.0 mph /  12.9 km/h 91 % 0.00 in /  0 mm
09:06 37.8 °F /  3.2 °C 35.4 °F /  1.9 °C 30.40 in /  1029.3 hPa NW 3.0 mph /  4.8 km/h 8.0 mph /  12.9 km/h 91 % 0.00 in /  0 mm
09:11 37.8 °F /  3.2 °C 35.4 °F /  1.9 °C 30.40 in /  1029.3 hPa NW 1.0 mph /  1.6 km/h 8.0 mph /  12.9 km/h 91 % 0.00 in /  0 mm
09:16 37.9 °F /  3.3 °C 35.6 °F /  2 °C 30.40 in /  1029.3 hPa Calm   8.0 mph /  12.9 km/h 91 % 0.00 in /  0 mm
09:21 38.1 °F /  3.4 °C 35.4 °F /  1.9 °C 30.41 in /  1029.7 hPa NNW 3.0 mph /  4.8 km/h 6.0 mph /  9.7 km/h 90 % 0.00 in /  0 mm
09:26 38.1 °F /  3.4 °C 35.4 °F /  1.9 °C 30.41 in /  1029.7 hPa Calm   7.0 mph /  11.3 km/h 90 % 0.00 in /  0 mm
09:31 38.1 °F /  3.4 °C 35.4 °F /  1.9 °C 30.41 in /  1029.7 hPa NW 2.0 mph /  3.2 km/h 7.0 mph /  11.3 km/h 90 % 0.00 in /  0 mm
09:36 38.3 °F /  3.5 °C 35.6 °F /  2 °C 30.41 in /  1029.7 hPa NW 1.0 mph /  1.6 km/h 7.0 mph /  11.3 km/h 90 % 0.00 in /  0 mm
09:41 38.5 °F /  3.6 °C 35.8 °F /  2.1 °C 30.41 in /  1029.7 hPa Calm   6.0 mph /  9.7 km/h 90 % 0.00 in /  0 mm
09:46 38.8 °F /  3.8 °C 36.1 °F /  2.3 °C 30.41 in /  1029.7 hPa NW 1.0 mph /  1.6 km/h 5.0 mph /  8 km/h 90 % 0.00 in /  0 mm
09:51 38.8 °F /  3.8 °C 36.1 °F /  2.3 °C 30.41 in /  1029.7 hPa NW 2.0 mph /  3.2 km/h 5.0 mph /  8 km/h 90 % 0.00 in /  0 mm
09:56 39.0 °F /  3.9 °C 36.3 °F /  2.4 °C 30.40 in /  1029.3 hPa Calm   5.0 mph /  8 km/h 90 % 0.00 in /  0 mm
10:01 39.0 °F /  3.9 °C 36.3 °F /  2.4 °C 30.40 in /  1029.3 hPa NE 2.0 mph /  3.2 km/h 5.0 mph /  8 km/h 90 % 0.00 in /  0 mm
10:06 39.0 °F /  3.9 °C 36.1 °F /  2.3 °C 30.40 in /  1029.3 hPa WNW 2.0 mph /  3.2 km/h 5.0 mph /  8 km/h 89 % 0.00 in /  0 mm
10:11 39.2 °F /  4 °C 36.3 °F /  2.4 °C 30.40 in /  1029.3 hPa NW 3.0 mph /  4.8 km/h 7.0 mph /  11.3 km/h 89 % 0.00 in /  0 mm
10:16 39.2 °F /  4 °C 36.3 °F /  2.4 °C 30.40 in /  1029.3 hPa NNW 3.0 mph /  4.8 km/h 7.0 mph /  11.3 km/h 89 % 0.00 in /  0 mm
10:21 39.4 °F /  4.1 °C 36.5 °F /  2.5 °C 30.40 in /  1029.3 hPa NW 1.0 mph /  1.6 km/h 7.0 mph /  11.3 km/h 89 % 0.00 in /  0 mm
10:26 39.6 °F /  4.2 °C 36.5 °F /  2.5 °C 30.40 in /  1029.3 hPa NNE 2.0 mph /  3.2 km/h 7.0 mph /  11.3 km/h 89 % 0.00 in /  0 mm
10:31 39.7 °F /  4.3 °C 36.7 °F /  2.6 °C 30.40 in /  1029.3 hPa North 1.0 mph /  1.6 km/h 7.0 mph /  11.3 km/h 89 % 0.00 in /  0 mm
10:36 39.7 °F /  4.3 °C 36.5 °F /  2.5 °C 30.41 in /  1029.7 hPa NE 2.0 mph /  3.2 km/h 7.0 mph /  11.3 km/h 88 % 0.00 in /  0 mm
10:41 39.9 °F /  4.4 °C 36.9 °F /  2.7 °C 30.41 in /  1029.7 hPa North 1.0 mph /  1.6 km/h 6.0 mph /  9.7 km/h 89 % 0.00 in /  0 mm
10:46 39.9 °F /  4.4 °C 36.7 °F /  2.6 °C 30.41 in /  1029.7 hPa Calm   6.0 mph /  9.7 km/h 88 % 0.00 in /  0 mm
10:51 40.1 °F /  4.5 °C 36.9 °F /  2.7 °C 30.41 in /  1029.7 hPa NNW 2.0 mph /  3.2 km/h 6.0 mph /  9.7 km/h 88 % 0.00 in /  0 mm
10:56 40.3 °F /  4.6 °C 37.0 °F /  2.8 °C 30.40 in /  1029.3 hPa NNE 1.0 mph /  1.6 km/h 7.0 mph /  11.3 km/h 88 % 0.00 in /  0 mm
11:01 40.5 °F /  4.7 °C 37.4 °F /  3 °C 30.40 in /  1029.3 hPa North 1.0 mph /  1.6 km/h 7.0 mph /  11.3 km/h 89 % 0.00 in /  0 mm
11:06 40.8 °F /  4.9 °C 37.6 °F /  3.1 °C 30.40 in /  1029.3 hPa NNW 5.0 mph /  8 km/h 7.0 mph /  11.3 km/h 88 % 0.00 in /  0 mm
11:11 40.8 °F /  4.9 °C 37.2 °F /  2.9 °C 30.39 in /  1029 hPa NNW 2.0 mph /  3.2 km/h 7.0 mph /  11.3 km/h 87 % 0.00 in /  0 mm
11:16 41.2 °F /  5.1 °C 37.6 °F /  3.1 °C 30.40 in /  1029.3 hPa NNW 4.0 mph /  6.4 km/h 7.0 mph /  11.3 km/h 87 % 0.00 in /  0 mm
11:21 41.5 °F /  5.3 °C 37.9 °F /  3.3 °C 30.40 in /  1029.3 hPa NW 1.0 mph /  1.6 km/h 8.0 mph /  12.9 km/h 87 % 0.00 in /  0 mm
11:26 41.5 °F /  5.3 °C 37.9 °F /  3.3 °C 30.40 in /  1029.3 hPa North 4.0 mph /  6.4 km/h 8.0 mph /  12.9 km/h 87 % 0.00 in /  0 mm
11:31 41.5 °F /  5.3 °C 37.6 °F /  3.1 °C 30.40 in /  1029.3 hPa NW 1.0 mph /  1.6 km/h 8.0 mph /  12.9 km/h 86 % 0.00 in /  0 mm
11:36 41.7 °F /  5.4 °C 37.8 °F /  3.2 °C 30.40 in /  1029.3 hPa Calm   8.0 mph /  12.9 km/h 86 % 0.00 in /  0 mm
11:41 41.9 °F /  5.5 °C 37.9 °F /  3.3 °C 30.39 in /  1029 hPa NE 1.0 mph /  1.6 km/h 8.0 mph /  12.9 km/h 86 % 0.00 in /  0 mm
11:46 42.3 °F /  5.7 °C 38.3 °F /  3.5 °C 30.39 in /  1029 hPa North 2.0 mph /  3.2 km/h 7.0 mph /  11.3 km/h 86 % 0.00 in /  0 mm
11:51 42.6 °F /  5.9 °C 38.5 °F /  3.6 °C 30.39 in /  1029 hPa North 3.0 mph /  4.8 km/h 7.0 mph /  11.3 km/h 85 % 0.00 in /  0 mm
11:56 42.4 °F /  5.8 °C 38.3 °F /  3.5 °C 30.39 in /  1029 hPa NNW 3.0 mph /  4.8 km/h 7.0 mph /  11.3 km/h 85 % 0.00 in /  0 mm
12:01 42.3 °F /  5.7 °C 38.1 °F /  3.4 °C 30.39 in /  1029 hPa NW 4.0 mph /  6.4 km/h 8.0 mph /  12.9 km/h 85 % 0.00 in /  0 mm
12:06 42.3 °F /  5.7 °C 38.3 °F /  3.5 °C 30.39 in /  1029 hPa NNE 2.0 mph /  3.2 km/h 8.0 mph /  12.9 km/h 86 % 0.00 in /  0 mm
12:11 42.6 °F /  5.9 °C 38.7 °F /  3.7 °C 30.38 in /  1028.7 hPa NNW 1.0 mph /  1.6 km/h 8.0 mph /  12.9 km/h 86 % 0.00 in /  0 mm
12:16 43.0 °F /  6.1 °C 39.0 °F /  3.9 °C 30.38 in /  1028.7 hPa NE 2.0 mph /  3.2 km/h 9.0 mph /  14.5 km/h 86 % 0.00 in /  0 mm
12:21 43.2 °F /  6.2 °C 39.0 °F /  3.9 °C 30.38 in /  1028.7 hPa NNW 4.0 mph /  6.4 km/h 9.0 mph /  14.5 km/h 85 % 0.00 in /  0 mm
12:26 43.2 °F /  6.2 °C 38.7 °F /  3.7 °C 30.38 in /  1028.7 hPa NNW 3.0 mph /  4.8 km/h 9.0 mph /  14.5 km/h 84 % 0.00 in /  0 mm
12:31 43.3 °F /  6.3 °C 38.8 °F /  3.8 °C 30.38 in /  1028.7 hPa NNW 2.0 mph /  3.2 km/h 7.0 mph /  11.3 km/h 84 % 0.00 in /  0 mm
12:36 43.3 °F /  6.3 °C 38.8 °F /  3.8 °C 30.37 in /  1028.3 hPa WNW 2.0 mph /  3.2 km/h 7.0 mph /  11.3 km/h 84 % 0.00 in /  0 mm
12:41 43.2 °F /  6.2 °C 38.7 °F /  3.7 °C 30.37 in /  1028.3 hPa NNE 3.0 mph /  4.8 km/h 8.0 mph /  12.9 km/h 84 % 0.00 in /  0 mm
12:46 43.5 °F /  6.4 °C 39.4 °F /  4.1 °C 30.38 in /  1028.7 hPa NNW 4.0 mph /  6.4 km/h 8.0 mph /  12.9 km/h 85 % 0.00 in /  0 mm
12:51 43.3 °F /  6.3 °C 38.8 °F /  3.8 °C 30.37 in /  1028.3 hPa NW 1.0 mph /  1.6 km/h 8.0 mph /  12.9 km/h 84 % 0.00 in /  0 mm
12:56 43.3 °F /  6.3 °C 38.8 °F /  3.8 °C 30.37 in /  1028.3 hPa NNW 2.0 mph /  3.2 km/h 8.0 mph /  12.9 km/h 84 % 0.00 in /  0 mm
13:01 43.7 °F /  6.5 °C 39.2 °F /  4 °C 30.36 in /  1028 hPa NNW 5.0 mph /  8 km/h 8.0 mph /  12.9 km/h 84 % 0.00 in /  0 mm
13:06 43.9 °F /  6.6 °C 39.4 °F /  4.1 °C 30.36 in /  1028 hPa NNW 7.0 mph /  11.3 km/h 8.0 mph /  12.9 km/h 84 % 0.00 in /  0 mm
13:11 43.7 °F /  6.5 °C 39.2 °F /  4 °C 30.36 in /  1028 hPa NW 2.0 mph /  3.2 km/h 8.0 mph /  12.9 km/h 84 % 0.00 in /  0 mm
13:16 44.1 °F /  6.7 °C 39.6 °F /  4.2 °C 30.35 in /  1027.7 hPa NW 4.0 mph /  6.4 km/h 8.0 mph /  12.9 km/h 84 % 0.00 in /  0 mm
13:21 44.1 °F /  6.7 °C 39.2 °F /  4 °C 30.35 in /  1027.7 hPa NW 3.0 mph /  4.8 km/h 8.0 mph /  12.9 km/h 83 % 0.00 in /  0 mm
13:26 44.1 °F /  6.7 °C 39.6 °F /  4.2 °C 30.35 in /  1027.7 hPa NNW 6.0 mph /  9.7 km/h 8.0 mph /  12.9 km/h 84 % 0.00 in /  0 mm
13:31 44.1 °F /  6.7 °C 39.2 °F /  4 °C 30.35 in /  1027.7 hPa NNW 4.0 mph /  6.4 km/h 8.0 mph /  12.9 km/h 83 % 0.00 in /  0 mm
13:36 44.1 °F /  6.7 °C 39.6 °F /  4.2 °C 30.35 in /  1027.7 hPa NW 5.0 mph /  8 km/h 8.0 mph /  12.9 km/h 84 % 0.00 in /  0 mm
13:41 44.2 °F /  6.8 °C 39.7 °F /  4.3 °C 30.35 in /  1027.7 hPa NNW 1.0 mph /  1.6 km/h 8.0 mph /  12.9 km/h 84 % 0.00 in /  0 mm
13:46 44.8 °F /  7.1 °C 40.3 °F /  4.6 °C 30.35 in /  1027.7 hPa NNW 2.0 mph /  3.2 km/h 8.0 mph /  12.9 km/h 84 % 0.00 in /  0 mm
13:51 44.8 °F /  7.1 °C 39.9 °F /  4.4 °C 30.35 in /  1027.7 hPa NW 2.0 mph /  3.2 km/h 7.0 mph /  11.3 km/h 83 % 0.00 in /  0 mm
13:56 44.8 °F /  7.1 °C 39.9 °F /  4.4 °C 30.35 in /  1027.7 hPa North 4.0 mph /  6.4 km/h 6.0 mph /  9.7 km/h 83 % 0.00 in /  0 mm
14:01 44.8 °F /  7.1 °C 39.9 °F /  4.4 °C 30.34 in /  1027.3 hPa North 5.0 mph /  8 km/h 8.0 mph /  12.9 km/h 83 % 0.00 in /  0 mm
14:06 44.8 °F /  7.1 °C 39.9 °F /  4.4 °C 30.34 in /  1027.3 hPa North 3.0 mph /  4.8 km/h 9.0 mph /  14.5 km/h 83 % 0.00 in /  0 mm
14:11 45.1 °F /  7.3 °C 40.3 °F /  4.6 °C 30.33 in /  1027 hPa NNW 6.0 mph /  9.7 km/h 9.0 mph /  14.5 km/h 83 % 0.00 in /  0 mm
14:16 45.0 °F /  7.2 °C 40.1 °F /  4.5 °C 30.34 in /  1027.3 hPa NW 3.0 mph /  4.8 km/h 9.0 mph /  14.5 km/h 83 % 0.00 in /  0 mm
14:22 45.1 °F /  7.3 °C 40.3 °F /  4.6 °C 30.34 in /  1027.3 hPa NNE 4.0 mph /  6.4 km/h 7.0 mph /  11.3 km/h 83 % 0.00 in /  0 mm
14:27 45.0 °F /  7.2 °C 40.1 °F /  4.5 °C 30.34 in /  1027.3 hPa NNW 2.0 mph /  3.2 km/h 8.0 mph /  12.9 km/h 83 % 0.00 in /  0 mm
14:32 44.8 °F /  7.1 °C 39.9 °F /  4.4 °C 30.34 in /  1027.3 hPa North 2.0 mph /  3.2 km/h 8.0 mph /  12.9 km/h 83 % 0.00 in /  0 mm
14:37 44.8 °F /  7.1 °C 40.3 °F /  4.6 °C 30.34 in /  1027.3 hPa NW 1.0 mph /  1.6 km/h 8.0 mph /  12.9 km/h 84 % 0.00 in /  0 mm
14:42 45.0 °F /  7.2 °C 40.5 °F /  4.7 °C 30.34 in /  1027.3 hPa WNW 2.0 mph /  3.2 km/h 8.0 mph /  12.9 km/h 84 % 0.00 in /  0 mm
14:47 45.1 °F /  7.3 °C 40.6 °F /  4.8 °C 30.34 in /  1027.3 hPa NNW 1.0 mph /  1.6 km/h 8.0 mph /  12.9 km/h 84 % 0.00 in /  0 mm
14:52 45.1 °F /  7.3 °C 40.6 °F /  4.8 °C 30.34 in /  1027.3 hPa NNW 3.0 mph /  4.8 km/h 8.0 mph /  12.9 km/h 84 % 0.00 in /  0 mm
14:57 45.3 °F /  7.4 °C 40.8 °F /  4.9 °C 30.34 in /  1027.3 hPa NW 2.0 mph /  3.2 km/h 5.0 mph /  8 km/h 84 % 0.00 in /  0 mm
15:02 45.5 °F /  7.5 °C 41.0 °F /  5 °C 30.33 in /  1027 hPa North 5.0 mph /  8 km/h 7.0 mph /  11.3 km/h 84 % 0.00 in /  0 mm
15:07 45.7 °F /  7.6 °C 40.8 °F /  4.9 °C 30.33 in /  1027 hPa NW 4.0 mph /  6.4 km/h 7.0 mph /  11.3 km/h 83 % 0.00 in /  0 mm
15:12 45.5 °F /  7.5 °C 40.6 °F /  4.8 °C 30.33 in /  1027 hPa West 5.0 mph /  8 km/h 7.0 mph /  11.3 km/h 83 % 0.00 in /  0 mm
15:17 45.7 °F /  7.6 °C 41.2 °F /  5.1 °C 30.33 in /  1027 hPa NNW 1.0 mph /  1.6 km/h 9.0 mph /  14.5 km/h 84 % 0.00 in /  0 mm
15:22 45.5 °F /  7.5 °C 41.0 °F /  5 °C 30.33 in /  1027 hPa WNW 2.0 mph /  3.2 km/h 9.0 mph /  14.5 km/h 84 % 0.00 in /  0 mm
15:27 45.5 °F /  7.5 °C 41.0 °F /  5 °C 30.33 in /  1027 hPa NE 5.0 mph /  8 km/h 9.0 mph /  14.5 km/h 84 % 0.00 in /  0 mm
15:32 45.5 °F /  7.5 °C 41.2 °F /  5.1 °C 30.33 in /  1027 hPa NW 2.0 mph /  3.2 km/h 9.0 mph /  14.5 km/h 85 % 0.00 in /  0 mm
15:37 45.7 °F /  7.6 °C 41.2 °F /  5.1 °C 30.33 in /  1027 hPa North 3.0 mph /  4.8 km/h 8.0 mph /  12.9 km/h 84 % 0.00 in /  0 mm
15:42 45.7 °F /  7.6 °C 41.2 °F /  5.1 °C 30.33 in /  1027 hPa NW 2.0 mph /  3.2 km/h 7.0 mph /  11.3 km/h 84 % 0.00 in /  0 mm
15:47 45.9 °F /  7.7 °C 41.4 °F /  5.2 °C 30.33 in /  1027 hPa NNW 1.0 mph /  1.6 km/h 7.0 mph /  11.3 km/h 84 % 0.00 in /  0 mm
15:52 46.0 °F /  7.8 °C 41.5 °F /  5.3 °C 30.32 in /  1026.6 hPa North 3.0 mph /  4.8 km/h 7.0 mph /  11.3 km/h 84 % 0.00 in /  0 mm
15:57 46.2 °F /  7.9 °C 41.7 °F /  5.4 °C 30.32 in /  1026.6 hPa WNW 3.0 mph /  4.8 km/h 7.0 mph /  11.3 km/h 84 % 0.00 in /  0 mm
16:02 46.2 °F /  7.9 °C 41.4 °F /  5.2 °C 30.33 in /  1027 hPa NNW 2.0 mph /  3.2 km/h 9.0 mph /  14.5 km/h 83 % 0.00 in /  0 mm
16:07 46.2 °F /  7.9 °C 41.4 °F /  5.2 °C 30.33 in /  1027 hPa NNW 4.0 mph /  6.4 km/h 9.0 mph /  14.5 km/h 83 % 0.00 in /  0 mm
16:12 46.0 °F /  7.8 °C 41.2 °F /  5.1 °C 30.33 in /  1027 hPa North 7.0 mph /  11.3 km/h 9.0 mph /  14.5 km/h 83 % 0.00 in /  0 mm
16:17 46.0 °F /  7.8 °C 41.5 °F /  5.3 °C 30.33 in /  1027 hPa ENE 1.0 mph /  1.6 km/h 10.0 mph /  16.1 km/h 84 % 0.00 in /  0 mm
16:22 46.2 °F /  7.9 °C 41.7 °F /  5.4 °C 30.33 in /  1027 hPa NNE 1.0 mph /  1.6 km/h 10.0 mph /  16.1 km/h 84 % 0.00 in /  0 mm
16:27 46.2 °F /  7.9 °C 41.7 °F /  5.4 °C 30.32 in /  1026.6 hPa NNE 3.0 mph /  4.8 km/h 10.0 mph /  16.1 km/h 84 % 0.00 in /  0 mm
16:32 46.2 °F /  7.9 °C 41.7 °F /  5.4 °C 30.32 in /  1026.6 hPa Calm   8.0 mph /  12.9 km/h 84 % 0.00 in /  0 mm
16:37 46.2 °F /  7.9 °C 41.4 °F /  5.2 °C 30.32 in /  1026.6 hPa NE 3.0 mph /  4.8 km/h 8.0 mph /  12.9 km/h 83 % 0.00 in /  0 mm
16:42 46.0 °F /  7.8 °C 41.5 °F /  5.3 °C 30.32 in /  1026.6 hPa WNW 2.0 mph /  3.2 km/h 7.0 mph /  11.3 km/h 84 % 0.00 in /  0 mm
16:47 46.0 °F /  7.8 °C 41.5 °F /  5.3 °C 30.32 in /  1026.6 hPa East 1.0 mph /  1.6 km/h 7.0 mph /  11.3 km/h 84 % 0.00 in /  0 mm
16:52 46.0 °F /  7.8 °C 41.5 °F /  5.3 °C 30.32 in /  1026.6 hPa NNW 1.0 mph /  1.6 km/h 7.0 mph /  11.3 km/h 84 % 0.00 in /  0 mm
16:57 46.0 °F /  7.8 °C 41.5 °F /  5.3 °C 30.33 in /  1027 hPa NNW 3.0 mph /  4.8 km/h 7.0 mph /  11.3 km/h 84 % 0.00 in /  0 mm
17:02 45.9 °F /  7.7 °C 41.4 °F /  5.2 °C 30.33 in /  1027 hPa Calm   7.0 mph /  11.3 km/h 84 % 0.00 in /  0 mm
17:07 45.9 °F /  7.7 °C 41.5 °F /  5.3 °C 30.33 in /  1027 hPa NNE 3.0 mph /  4.8 km/h 7.0 mph /  11.3 km/h 85 % 0.00 in /  0 mm
17:12 45.9 °F /  7.7 °C 41.5 °F /  5.3 °C 30.33 in /  1027 hPa NNE 1.0 mph /  1.6 km/h 7.0 mph /  11.3 km/h 85 % 0.00 in /  0 mm
17:17 45.9 °F /  7.7 °C 41.5 °F /  5.3 °C 30.34 in /  1027.3 hPa NE 2.0 mph /  3.2 km/h 7.0 mph /  11.3 km/h 85 % 0.00 in /  0 mm
17:22 45.7 °F /  7.6 °C 41.4 °F /  5.2 °C 30.34 in /  1027.3 hPa NNW 1.0 mph /  1.6 km/h 7.0 mph /  11.3 km/h 85 % 0.00 in /  0 mm
17:27 45.3 °F /  7.4 °C 41.0 °F /  5 °C 30.34 in /  1027.3 hPa NNE 3.0 mph /  4.8 km/h 7.0 mph /  11.3 km/h 85 % 0.00 in /  0 mm
17:32 45.1 °F /  7.3 °C 41.2 °F /  5.1 °C 30.34 in /  1027.3 hPa NE 2.0 mph /  3.2 km/h 7.0 mph /  11.3 km/h 86 % 0.00 in /  0 mm
17:37 45.0 °F /  7.2 °C 41.0 °F /  5 °C 30.34 in /  1027.3 hPa ENE 3.0 mph /  4.8 km/h 7.0 mph /  11.3 km/h 86 % 0.00 in /  0 mm
17:42 45.0 °F /  7.2 °C 41.4 °F /  5.2 °C 30.34 in /  1027.3 hPa East 4.0 mph /  6.4 km/h 7.0 mph /  11.3 km/h 87 % 0.00 in /  0 mm
17:47 44.8 °F /  7.1 °C 41.2 °F /  5.1 °C 30.34 in /  1027.3 hPa WNW 1.0 mph /  1.6 km/h 6.0 mph /  9.7 km/h 87 % 0.00 in /  0 mm
17:52 44.6 °F /  7 °C 41.0 °F /  5 °C 30.34 in /  1027.3 hPa NNW 1.0 mph /  1.6 km/h 5.0 mph /  8 km/h 87 % 0.00 in /  0 mm
17:57 44.4 °F /  6.9 °C 41.2 °F /  5.1 °C 30.34 in /  1027.3 hPa NE 1.0 mph /  1.6 km/h 8.0 mph /  12.9 km/h 88 % 0.00 in /  0 mm
18:02 44.4 °F /  6.9 °C 41.2 °F /  5.1 °C 30.35 in /  1027.7 hPa NNE 1.0 mph /  1.6 km/h 8.0 mph /  12.9 km/h 88 % 0.00 in /  0 mm
18:07 44.4 °F /  6.9 °C 41.2 °F /  5.1 °C 30.35 in /  1027.7 hPa NNW 2.0 mph /  3.2 km/h 8.0 mph /  12.9 km/h 88 % 0.00 in /  0 mm
18:12 44.2 °F /  6.8 °C 41.0 °F /  5 °C 30.35 in /  1027.7 hPa Calm   8.0 mph /  12.9 km/h 88 % 0.00 in /  0 mm
18:17 44.2 °F /  6.8 °C 41.2 °F /  5.1 °C 30.35 in /  1027.7 hPa NE 1.0 mph /  1.6 km/h 7.0 mph /  11.3 km/h 89 % 0.00 in /  0 mm
18:22 44.2 °F /  6.8 °C 41.2 °F /  5.1 °C 30.35 in /  1027.7 hPa Calm   6.0 mph /  9.7 km/h 89 % 0.00 in /  0 mm
18:27 44.2 °F /  6.8 °C 41.2 °F /  5.1 °C 30.35 in /  1027.7 hPa Calm   6.0 mph /  9.7 km/h 89 % 0.00 in /  0 mm
18:32 44.2 °F /  6.8 °C 41.2 °F /  5.1 °C 30.35 in /  1027.7 hPa Calm   6.0 mph /  9.7 km/h 89 % 0.00 in /  0 mm
18:37 44.1 °F /  6.7 °C 41.0 °F /  5 °C 30.35 in /  1027.7 hPa NNE 3.0 mph /  4.8 km/h 5.0 mph /  8 km/h 89 % 0.00 in /  0 mm
18:42 44.1 °F /  6.7 °C 41.4 °F /  5.2 °C 30.36 in /  1028 hPa East 1.0 mph /  1.6 km/h 6.0 mph /  9.7 km/h 90 % 0.00 in /  0 mm
18:47 43.9 °F /  6.6 °C 41.2 °F /  5.1 °C 30.36 in /  1028 hPa ESE 2.0 mph /  3.2 km/h 6.0 mph /  9.7 km/h 90 % 0.00 in /  0 mm
18:52 43.9 °F /  6.6 °C 41.2 °F /  5.1 °C 30.36 in /  1028 hPa East 1.0 mph /  1.6 km/h 6.0 mph /  9.7 km/h 90 % 0.00 in /  0 mm
18:57 43.9 °F /  6.6 °C 41.2 °F /  5.1 °C 30.36 in /  1028 hPa Calm   5.0 mph /  8 km/h 90 % 0.00 in /  0 mm
19:02 43.9 °F /  6.6 °C 41.4 °F /  5.2 °C 30.36 in /  1028 hPa NNW 1.0 mph /  1.6 km/h 4.0 mph /  6.4 km/h 91 % 0.00 in /  0 mm
19:08 43.9 °F /  6.6 °C 41.4 °F /  5.2 °C 30.36 in /  1028 hPa NNE 4.0 mph /  6.4 km/h 5.0 mph /  8 km/h 91 % 0.00 in /  0 mm
19:13 43.5 °F /  6.4 °C 41.0 °F /  5 °C 30.36 in /  1028 hPa NNE 1.0 mph /  1.6 km/h 8.0 mph /  12.9 km/h 91 % 0.00 in /  0 mm
19:18 43.5 °F /  6.4 °C 41.4 °F /  5.2 °C 30.36 in /  1028 hPa North 2.0 mph /  3.2 km/h 8.0 mph /  12.9 km/h 92 % 0.00 in /  0 mm
19:23 43.5 °F /  6.4 °C 41.4 °F /  5.2 °C 30.36 in /  1028 hPa Calm   8.0 mph /  12.9 km/h 92 % 0.00 in /  0 mm
19:28 43.5 °F /  6.4 °C 41.4 °F /  5.2 °C 30.36 in /  1028 hPa East 1.0 mph /  1.6 km/h 5.0 mph /  8 km/h 92 % 0.00 in /  0 mm
19:33 43.3 °F /  6.3 °C 41.5 °F /  5.3 °C 30.36 in /  1028 hPa East 1.0 mph /  1.6 km/h 5.0 mph /  8 km/h 93 % 0.00 in /  0 mm
19:38 43.3 °F /  6.3 °C 41.5 °F /  5.3 °C 30.37 in /  1028.3 hPa Calm   5.0 mph /  8 km/h 93 % 0.00 in /  0 mm
19:43 43.3 °F /  6.3 °C 41.5 °F /  5.3 °C 30.37 in /  1028.3 hPa NE 1.0 mph /  1.6 km/h 5.0 mph /  8 km/h 93 % 0.00 in /  0 mm
19:48 43.3 °F /  6.3 °C 41.5 °F /  5.3 °C 30.37 in /  1028.3 hPa East 2.0 mph /  3.2 km/h 8.0 mph /  12.9 km/h 93 % 0.00 in /  0 mm
19:53 43.3 °F /  6.3 °C 41.5 °F /  5.3 °C 30.37 in /  1028.3 hPa ENE 3.0 mph /  4.8 km/h 8.0 mph /  12.9 km/h 93 % 0.00 in /  0 mm
19:58 43.3 °F /  6.3 °C 41.5 °F /  5.3 °C 30.37 in /  1028.3 hPa NNW 1.0 mph /  1.6 km/h 8.0 mph /  12.9 km/h 93 % 0.00 in /  0 mm
20:03 43.3 °F /  6.3 °C 41.5 °F /  5.3 °C 30.37 in /  1028.3 hPa NE 2.0 mph /  3.2 km/h 7.0 mph /  11.3 km/h 93 % 0.00 in /  0 mm
20:08 43.3 °F /  6.3 °C 41.5 °F /  5.3 °C 30.37 in /  1028.3 hPa NNE 1.0 mph /  1.6 km/h 7.0 mph /  11.3 km/h 93 % 0.00 in /  0 mm
20:13 43.5 °F /  6.4 °C 41.7 °F /  5.4 °C 30.38 in /  1028.7 hPa ENE 1.0 mph /  1.6 km/h 5.0 mph /  8 km/h 93 % 0.00 in /  0 mm
20:18 43.5 °F /  6.4 °C 41.9 °F /  5.5 °C 30.38 in /  1028.7 hPa East 6.0 mph /  9.7 km/h 6.0 mph /  9.7 km/h 94 % 0.00 in /  0 mm
20:23 43.5 °F /  6.4 °C 41.7 °F /  5.4 °C 30.38 in /  1028.7 hPa Calm   7.0 mph /  11.3 km/h 93 % 0.00 in /  0 mm
20:28 43.5 °F /  6.4 °C 41.9 °F /  5.5 °C 30.38 in /  1028.7 hPa NE 2.0 mph /  3.2 km/h 7.0 mph /  11.3 km/h 94 % 0.00 in /  0 mm
20:33 43.5 °F /  6.4 °C 41.9 °F /  5.5 °C 30.38 in /  1028.7 hPa NE 3.0 mph /  4.8 km/h 7.0 mph /  11.3 km/h 94 % 0.00 in /  0 mm
20:38 43.5 °F /  6.4 °C 41.9 °F /  5.5 °C 30.38 in /  1028.7 hPa NNW 3.0 mph /  4.8 km/h 5.0 mph /  8 km/h 94 % 0.00 in /  0 mm
20:43 43.5 °F /  6.4 °C 41.9 °F /  5.5 °C 30.38 in /  1028.7 hPa ENE 1.0 mph /  1.6 km/h 5.0 mph /  8 km/h 94 % 0.00 in /  0 mm
20:48 43.5 °F /  6.4 °C 41.9 °F /  5.5 °C 30.38 in /  1028.7 hPa Calm   5.0 mph /  8 km/h 94 % 0.00 in /  0 mm
20:53 43.5 °F /  6.4 °C 41.9 °F /  5.5 °C 30.38 in /  1028.7 hPa North 2.0 mph /  3.2 km/h 5.0 mph /  8 km/h 94 % 0.00 in /  0 mm
20:58 43.5 °F /  6.4 °C 41.9 °F /  5.5 °C 30.38 in /  1028.7 hPa NNE 7.0 mph /  11.3 km/h 7.0 mph /  11.3 km/h 94 % 0.00 in /  0 mm
21:03 43.5 °F /  6.4 °C 41.9 °F /  5.5 °C 30.38 in /  1028.7 hPa Calm   9.0 mph /  14.5 km/h 94 % 0.00 in /  0 mm
21:08 43.5 °F /  6.4 °C 41.9 °F /  5.5 °C 30.38 in /  1028.7 hPa NNE 2.0 mph /  3.2 km/h 9.0 mph /  14.5 km/h 94 % 0.00 in /  0 mm
21:13 43.5 °F /  6.4 °C 41.9 °F /  5.5 °C 30.38 in /  1028.7 hPa Calm   9.0 mph /  14.5 km/h 94 % 0.00 in /  0 mm
21:18 43.5 °F /  6.4 °C 41.9 °F /  5.5 °C 30.38 in /  1028.7 hPa WNW 2.0 mph /  3.2 km/h 6.0 mph /  9.7 km/h 94 % 0.00 in /  0 mm
21:23 43.5 °F /  6.4 °C 41.9 °F /  5.5 °C 30.38 in /  1028.7 hPa NE 2.0 mph /  3.2 km/h 6.0 mph /  9.7 km/h 94 % 0.00 in /  0 mm
21:28 43.5 °F /  6.4 °C 41.9 °F /  5.5 °C 30.38 in /  1028.7 hPa NNW 1.0 mph /  1.6 km/h 5.0 mph /  8 km/h 94 % 0.00 in /  0 mm
21:33 43.5 °F /  6.4 °C 41.9 °F /  5.5 °C 30.38 in /  1028.7 hPa NNE 2.0 mph /  3.2 km/h 5.0 mph /  8 km/h 94 % 0.00 in /  0 mm
21:38 43.5 °F /  6.4 °C 41.9 °F /  5.5 °C 30.38 in /  1028.7 hPa Calm   5.0 mph /  8 km/h 94 % 0.00 in /  0 mm
21:43 43.5 °F /  6.4 °C 41.9 °F /  5.5 °C 30.38 in /  1028.7 hPa North 1.0 mph /  1.6 km/h 5.0 mph /  8 km/h 94 % 0.00 in /  0 mm
21:48 43.5 °F /  6.4 °C 41.9 °F /  5.5 °C 30.38 in /  1028.7 hPa Calm   6.0 mph /  9.7 km/h 94 % 0.00 in /  0 mm
21:53 43.5 °F /  6.4 °C 41.9 °F /  5.5 °C 30.38 in /  1028.7 hPa Calm   6.0 mph /  9.7 km/h 94 % 0.00 in /  0 mm
21:58 43.5 °F /  6.4 °C 41.9 °F /  5.5 °C 30.38 in /  1028.7 hPa East 2.0 mph /  3.2 km/h 6.0 mph /  9.7 km/h 94 % 0.00 in /  0 mm
22:03 43.5 °F /  6.4 °C 41.9 °F /  5.5 °C 30.38 in /  1028.7 hPa NNE 2.0 mph /  3.2 km/h 6.0 mph /  9.7 km/h 94 % 0.00 in /  0 mm
22:08 43.5 °F /  6.4 °C 41.9 °F /  5.5 °C 30.38 in /  1028.7 hPa East 5.0 mph /  8 km/h 6.0 mph /  9.7 km/h 94 % 0.00 in /  0 mm
22:13 43.5 °F /  6.4 °C 41.9 °F /  5.5 °C 30.38 in /  1028.7 hPa ENE 4.0 mph /  6.4 km/h 6.0 mph /  9.7 km/h 94 % 0.00 in /  0 mm
22:18 43.5 °F /  6.4 °C 41.9 °F /  5.5 °C 30.38 in /  1028.7 hPa NNW 2.0 mph /  3.2 km/h 6.0 mph /  9.7 km/h 94 % 0.00 in /  0 mm
22:23 43.5 °F /  6.4 °C 41.9 °F /  5.5 °C 30.38 in /  1028.7 hPa North 2.0 mph /  3.2 km/h 7.0 mph /  11.3 km/h 94 % 0.00 in /  0 mm
22:28 43.3 °F /  6.3 °C 41.7 °F /  5.4 °C 30.38 in /  1028.7 hPa NE 5.0 mph /  8 km/h 7.0 mph /  11.3 km/h 94 % 0.00 in /  0 mm
22:33 43.3 °F /  6.3 °C 41.7 °F /  5.4 °C 30.38 in /  1028.7 hPa ENE 4.0 mph /  6.4 km/h 7.0 mph /  11.3 km/h 94 % 0.00 in /  0 mm
22:38 43.3 °F /  6.3 °C 41.7 °F /  5.4 °C 30.38 in /  1028.7 hPa ENE 1.0 mph /  1.6 km/h 7.0 mph /  11.3 km/h 94 % 0.00 in /  0 mm
22:43 43.3 °F /  6.3 °C 41.7 °F /  5.4 °C 30.38 in /  1028.7 hPa NE 1.0 mph /  1.6 km/h 7.0 mph /  11.3 km/h 94 % 0.00 in /  0 mm
22:48 43.3 °F /  6.3 °C 41.7 °F /  5.4 °C 30.38 in /  1028.7 hPa Calm   7.0 mph /  11.3 km/h 94 % 0.00 in /  0 mm
22:53 43.3 °F /  6.3 °C 41.7 °F /  5.4 °C 30.38 in /  1028.7 hPa North 2.0 mph /  3.2 km/h 7.0 mph /  11.3 km/h 94 % 0.00 in /  0 mm
22:58 43.3 °F /  6.3 °C 41.7 °F /  5.4 °C 30.38 in /  1028.7 hPa ENE 4.0 mph /  6.4 km/h 5.0 mph /  8 km/h 94 % 0.00 in /  0 mm
23:03 43.3 °F /  6.3 °C 41.7 °F /  5.4 °C 30.38 in /  1028.7 hPa NW 1.0 mph /  1.6 km/h 8.0 mph /  12.9 km/h 94 % 0.00 in /  0 mm
23:08 43.3 °F /  6.3 °C 41.7 °F /  5.4 °C 30.38 in /  1028.7 hPa NE 1.0 mph /  1.6 km/h 8.0 mph /  12.9 km/h 94 % 0.00 in /  0 mm
23:13 43.3 °F /  6.3 °C 41.7 °F /  5.4 °C 30.38 in /  1028.7 hPa ENE 1.0 mph /  1.6 km/h 8.0 mph /  12.9 km/h 94 % 0.00 in /  0 mm
23:18 43.3 °F /  6.3 °C 41.7 °F /  5.4 °C 30.38 in /  1028.7 hPa Calm   6.0 mph /  9.7 km/h 94 % 0.00 in /  0 mm
23:23 43.2 °F /  6.2 °C 41.5 °F /  5.3 °C 30.38 in /  1028.7 hPa ENE 6.0 mph /  9.7 km/h 6.0 mph /  9.7 km/h 94 % 0.00 in /  0 mm
23:28 43.3 °F /  6.3 °C 41.7 °F /  5.4 °C 30.38 in /  1028.7 hPa Calm   6.0 mph /  9.7 km/h 94 % 0.00 in /  0 mm
23:33 43.2 °F /  6.2 °C 41.5 °F /  5.3 °C 30.38 in /  1028.7 hPa NE 1.0 mph /  1.6 km/h 6.0 mph /  9.7 km/h 94 % 0.00 in /  0 mm
23:38 43.3 °F /  6.3 °C 41.7 °F /  5.4 °C 30.38 in /  1028.7 hPa Calm   6.0 mph /  9.7 km/h 94 % 0.00 in /  0 mm
23:44 43.3 °F /  6.3 °C 41.7 °F /  5.4 °C 30.38 in /  1028.7 hPa NNE 1.0 mph /  1.6 km/h 6.0 mph /  9.7 km/h 94 % 0.00 in /  0 mm
23:49 43.3 °F /  6.3 °C 41.7 °F /  5.4 °C 30.38 in /  1028.7 hPa Calm   5.0 mph /  8 km/h 94 % 0.00 in /  0 mm
23:54 43.3 °F /  6.3 °C 41.7 °F /  5.4 °C 30.38 in /  1028.7 hPa Calm   5.0 mph /  8 km/h 94 % 0.00 in /  0 mm
23:59 43.5 °F /  6.4 °C 41.9 °F /  5.5 °C 30.38 in /  1028.7 hPa Calm   3.0 mph /  4.8 km/h 94 % 0.00 in /  0 mm
Spring, Texas: Villages of Bridgestone
Compliments of Weather Underground - 3 mb

Script developed by  Jim McMurry - jmcmurry@mwt.net Adapted for the template by  Wim van der Kuil - Leuven-Template.eu

You find our weather info also at:

UK Metoffice

WeatherCloud

Weather Underground

Mid-South Weather Network

AWEKAS

Citizen Weather Observer Program (CWOP)

HAMweather, WeatherForYou, PWS Weather

Equipment we use:

Weather-station
Davis Vantage Vue

Weather-program
Meteohub

Weather-server
Debian 7.9 x86 (Guest)

Provider
DreamHost

Davis Vantage Vue

Meteohub

Debian 7.9 x86 (Guest)

DreamHost